sensor_id;sensor_type;location;lat;lon;timestamp;P1;durP1;ratioP1;P2;durP2;ratioP2
67930;SDS011;63902;52.000;5.954;2024-01-10T03:35:28;3.28;;;2.28;;
67930;SDS011;63902;52.000;5.954;2024-01-10T03:36:28;2.83;;;2.15;;
67930;SDS011;63902;52.000;5.954;2024-01-10T03:37:29;7.32;;;3.28;;
67930;SDS011;63902;52.000;5.954;2024-01-10T03:38:29;5.20;;;2.33;;
67930;SDS011;63902;52.000;5.954;2024-01-10T03:39:30;5.03;;;2.47;;
67930;SDS011;63902;52.000;5.954;2024-01-10T03:40:30;6.78;;;2.30;;
67930;SDS011;63902;52.000;5.954;2024-01-10T03:41:31;4.13;;;2.95;;
67930;SDS011;63902;52.000;5.954;2024-01-10T03:42:31;5.03;;;2.78;;
67930;SDS011;63902;52.000;5.954;2024-01-10T03:43:32;6.05;;;2.55;;
67930;SDS011;63902;52.000;5.954;2024-01-10T03:44:32;5.43;;;2.67;;
67930;SDS011;63902;52.000;5.954;2024-01-10T03:45:33;7.50;;;2.50;;
67930;SDS011;63902;52.000;5.954;2024-01-10T03:46:34;3.53;;;2.28;;
67930;SDS011;63902;52.000;5.954;2024-01-10T03:47:34;6.13;;;3.42;;
67930;SDS011;63902;52.000;5.954;2024-01-10T03:48:35;5.10;;;2.85;;
67930;SDS011;63902;52.000;5.954;2024-01-10T03:49:37;6.05;;;3.42;;
67930;SDS011;63902;52.000;5.954;2024-01-10T03:50:38;4.25;;;2.70;;
67930;SDS011;63902;52.000;5.954;2024-01-10T03:51:38;4.60;;;2.85;;
67930;SDS011;63902;52.000;5.954;2024-01-10T03:52:39;4.50;;;2.40;;
67930;SDS011;63902;52.000;5.954;2024-01-10T03:53:39;11.77;;;2.80;;
67930;SDS011;63902;52.000;5.954;2024-01-10T03:54:40;4.78;;;2.80;;
67930;SDS011;63902;52.000;5.954;2024-01-10T03:55:40;5.05;;;2.70;;
67930;SDS011;63902;52.000;5.954;2024-01-10T03:56:41;4.13;;;2.80;;
67930;SDS011;63902;52.000;5.954;2024-01-10T03:57:41;5.68;;;2.72;;
67930;SDS011;63902;52.000;5.954;2024-01-10T03:58:42;5.32;;;3.08;;
67930;SDS011;63902;52.000;5.954;2024-01-10T03:59:42;5.03;;;2.90;;
67930;SDS011;63902;52.000;5.954;2024-01-10T04:00:43;5.70;;;3.28;;
67930;SDS011;63902;52.000;5.954;2024-01-10T04:01:44;3.75;;;2.40;;
67930;SDS011;63902;52.000;5.954;2024-01-10T04:02:44;4.78;;;2.60;;
67930;SDS011;63902;52.000;5.954;2024-01-10T04:03:45;4.80;;;2.60;;
67930;SDS011;63902;52.000;5.954;2024-01-10T04:04:46;4.30;;;3.00;;
67930;SDS011;63902;52.000;5.954;2024-01-10T04:05:47;5.60;;;3.00;;
67930;SDS011;63902;52.000;5.954;2024-01-10T04:06:47;4.60;;;2.55;;
67930;SDS011;63902;52.000;5.954;2024-01-10T04:07:48;4.43;;;2.75;;
67930;SDS011;63902;52.000;5.954;2024-01-10T04:08:48;7.03;;;3.22;;
67930;SDS011;63902;52.000;5.954;2024-01-10T04:09:49;5.35;;;2.70;;
67930;SDS011;63902;52.000;5.954;2024-01-10T04:10:49;3.75;;;2.75;;
67930;SDS011;63902;52.000;5.954;2024-01-10T04:11:50;4.88;;;3.08;;
67930;SDS011;63902;52.000;5.954;2024-01-10T04:12:51;5.00;;;2.90;;
67930;SDS011;63902;52.000;5.954;2024-01-10T04:13:51;3.80;;;2.45;;
67930;SDS011;63902;52.000;5.954;2024-01-10T04:14:51;3.88;;;2.10;;
67930;SDS011;63902;52.000;5.954;2024-01-10T04:15:52;5.50;;;2.20;;
67930;SDS011;63902;52.000;5.954;2024-01-10T04:16:53;5.00;;;3.00;;
67930;SDS011;63902;52.000;5.954;2024-01-10T04:17:54;7.57;;;2.97;;
67930;SDS011;63902;52.000;5.954;2024-01-10T04:18:54;4.68;;;2.75;;
67930;SDS011;63902;52.000;5.954;2024-01-10T04:19:56;6.05;;;3.17;;
67930;SDS011;63902;52.000;5.954;2024-01-10T04:20:56;4.70;;;2.67;;
67930;SDS011;63902;52.000;5.954;2024-01-10T04:21:57;7.70;;;2.78;;
67930;SDS011;63902;52.000;5.954;2024-01-10T04:22:58;4.97;;;2.95;;
67930;SDS011;63902;52.000;5.954;2024-01-10T04:23:58;5.50;;;3.00;;
67930;SDS011;63902;52.000;5.954;2024-01-10T04:24:59;5.78;;;2.92;;
67930;SDS011;63902;52.000;5.954;2024-01-10T04:26:01;7.72;;;3.35;;
67930;SDS011;63902;52.000;5.954;2024-01-10T04:27:01;5.30;;;2.50;;
67930;SDS011;63902;52.000;5.954;2024-01-10T04:28:02;2.10;;;1.90;;
67930;SDS011;63902;52.000;5.954;2024-01-10T04:29:03;5.75;;;3.00;;
67930;SDS011;63902;52.000;5.954;2024-01-10T04:30:04;3.70;;;2.45;;
67930;SDS011;63902;52.000;5.954;2024-01-10T04:31:05;5.30;;;2.78;;
67930;SDS011;63902;52.000;5.954;2024-01-10T04:32:06;4.68;;;2.75;;
67930;SDS011;63902;52.000;5.954;2024-01-10T04:33:06;5.32;;;2.85;;
67930;SDS011;63902;52.000;5.954;2024-01-10T04:34:07;5.72;;;2.95;;
67930;SDS011;63902;52.000;5.954;2024-01-10T04:35:09;4.88;;;3.17;;
67930;SDS011;63902;52.000;5.954;2024-01-10T04:36:10;4.85;;;3.38;;
67930;SDS011;63902;52.000;5.954;2024-01-10T04:37:10;4.72;;;2.95;;
67930;SDS011;63902;52.000;5.954;2024-01-10T04:38:11;4.68;;;2.88;;
67930;SDS011;63902;52.000;5.954;2024-01-10T04:39:11;5.30;;;2.97;;
67930;SDS011;63902;52.000;5.954;2024-01-10T04:40:12;4.03;;;2.85;;
67930;SDS011;63902;52.000;5.954;2024-01-10T04:41:13;4.38;;;2.90;;
67930;SDS011;63902;52.000;5.954;2024-01-10T04:42:13;4.80;;;2.63;;
67930;SDS011;63902;52.000;5.954;2024-01-10T04:43:14;5.25;;;3.05;;
67930;SDS011;63902;52.000;5.954;2024-01-10T04:44:14;5.97;;;2.70;;
67930;SDS011;63902;52.000;5.954;2024-01-10T04:45:15;5.50;;;3.38;;
67930;SDS011;63902;52.000;5.954;2024-01-10T04:46:16;7.30;;;2.22;;
67930;SDS011;63902;52.000;5.954;2024-01-10T04:47:16;10.40;;;3.30;;
67930;SDS011;63902;52.000;5.954;2024-01-10T04:48:17;2.78;;;2.10;;
67930;SDS011;63902;52.000;5.954;2024-01-10T04:49:17;3.10;;;2.22;;
67930;SDS011;63902;52.000;5.954;2024-01-10T04:50:19;4.22;;;2.72;;
67930;SDS011;63902;52.000;5.954;2024-01-10T04:51:20;8.15;;;2.70;;
67930;SDS011;63902;52.000;5.954;2024-01-10T04:52:20;7.28;;;2.90;;
67930;SDS011;63902;52.000;5.954;2024-01-10T04:53:21;4.28;;;2.33;;
67930;SDS011;63902;52.000;5.954;2024-01-10T04:54:21;6.72;;;2.13;;
67930;SDS011;63902;52.000;5.954;2024-01-10T04:55:22;3.85;;;2.40;;
67930;SDS011;63902;52.000;5.954;2024-01-10T04:56:22;4.03;;;2.80;;
67930;SDS011;63902;52.000;5.954;2024-01-10T04:57:23;5.07;;;3.17;;
67930;SDS011;63902;52.000;5.954;2024-01-10T04:58:23;4.97;;;2.85;;
67930;SDS011;63902;52.000;5.954;2024-01-10T04:59:24;4.15;;;2.28;;
67930;SDS011;63902;52.000;5.954;2024-01-10T05:00:24;6.30;;;3.28;;
67930;SDS011;63902;52.000;5.954;2024-01-10T05:01:25;4.43;;;2.80;;
67930;SDS011;63902;52.000;5.954;2024-01-10T05:02:26;3.45;;;2.42;;
67930;SDS011;63902;52.000;5.954;2024-01-10T05:03:26;5.05;;;3.70;;
67930;SDS011;63902;52.000;5.954;2024-01-10T05:04:27;5.57;;;3.22;;
67930;SDS011;63902;52.000;5.954;2024-01-10T05:05:28;7.10;;;3.10;;
67930;SDS011;63902;52.000;5.954;2024-01-10T05:06:29;6.20;;;3.05;;
67930;SDS011;63902;52.000;5.954;2024-01-10T05:07:30;7.00;;;3.42;;
67930;SDS011;63902;52.000;5.954;2024-01-10T05:08:30;4.30;;;2.88;;
67930;SDS011;63902;52.000;5.954;2024-01-10T05:09:30;3.88;;;2.67;;
67930;SDS011;63902;52.000;5.954;2024-01-10T05:10:31;5.60;;;3.38;;
67930;SDS011;63902;52.000;5.954;2024-01-10T05:11:31;6.15;;;3.20;;
67930;SDS011;63902;52.000;5.954;2024-01-10T05:12:32;3.53;;;2.33;;
67930;SDS011;63902;52.000;5.954;2024-01-10T05:13:33;4.05;;;2.75;;
67930;SDS011;63902;52.000;5.954;2024-01-10T05:14:33;8.13;;;3.20;;
67930;SDS011;63902;52.000;5.954;2024-01-10T05:15:34;4.60;;;2.75;;
67930;SDS011;63902;52.000;5.954;2024-01-10T05:16:34;5.97;;;2.95;;
67930;SDS011;63902;52.000;5.954;2024-01-10T05:17:35;4.75;;;3.08;;
67930;SDS011;63902;52.000;5.954;2024-01-10T05:18:35;3.60;;;2.25;;
67930;SDS011;63902;52.000;5.954;2024-01-10T05:19:36;4.10;;;2.33;;
67930;SDS011;63902;52.000;5.954;2024-01-10T05:20:37;5.22;;;2.97;;
67930;SDS011;63902;52.000;5.954;2024-01-10T05:21:38;4.40;;;2.97;;
67930;SDS011;63902;52.000;5.954;2024-01-10T05:22:39;5.60;;;2.83;;
67930;SDS011;63902;52.000;5.954;2024-01-10T05:23:40;4.15;;;2.78;;
67930;SDS011;63902;52.000;5.954;2024-01-10T05:24:40;2.90;;;2.47;;
67930;SDS011;63902;52.000;5.954;2024-01-10T05:25:41;4.78;;;3.17;;
67930;SDS011;63902;52.000;5.954;2024-01-10T05:26:41;6.00;;;3.10;;
67930;SDS011;63902;52.000;5.954;2024-01-10T05:27:42;5.07;;;3.20;;
67930;SDS011;63902;52.000;5.954;2024-01-10T05:28:42;8.05;;;3.15;;
67930;SDS011;63902;52.000;5.954;2024-01-10T05:29:43;5.20;;;2.67;;
67930;SDS011;63902;52.000;5.954;2024-01-10T05:30:43;3.88;;;2.67;;
67930;SDS011;63902;52.000;5.954;2024-01-10T05:31:44;4.97;;;3.08;;
67930;SDS011;63902;52.000;5.954;2024-01-10T05:32:44;6.65;;;3.38;;
67930;SDS011;63902;52.000;5.954;2024-01-10T05:33:45;6.68;;;4.07;;
67930;SDS011;63902;52.000;5.954;2024-01-10T05:34:46;3.45;;;2.22;;
67930;SDS011;63902;52.000;5.954;2024-01-10T05:35:47;4.95;;;2.92;;
67930;SDS011;63902;52.000;5.954;2024-01-10T05:36:48;4.78;;;2.78;;
67930;SDS011;63902;52.000;5.954;2024-01-10T05:37:48;9.18;;;2.63;;
67930;SDS011;63902;52.000;5.954;2024-01-10T05:38:49;5.53;;;3.13;;
67930;SDS011;63902;52.000;5.954;2024-01-10T05:39:49;7.65;;;3.10;;
67930;SDS011;63902;52.000;5.954;2024-01-10T05:40:50;4.57;;;2.78;;
67930;SDS011;63902;52.000;5.954;2024-01-10T05:41:50;4.47;;;2.70;;
67930;SDS011;63902;52.000;5.954;2024-01-10T05:42:51;7.05;;;3.92;;
67930;SDS011;63902;52.000;5.954;2024-01-10T05:43:51;5.75;;;3.22;;
67930;SDS011;63902;52.000;5.954;2024-01-10T05:44:52;3.42;;;2.63;;
67930;SDS011;63902;52.000;5.954;2024-01-10T05:45:52;5.63;;;3.10;;
67930;SDS011;63902;52.000;5.954;2024-01-10T05:46:53;4.85;;;3.00;;
67930;SDS011;63902;52.000;5.954;2024-01-10T05:47:53;6.28;;;2.50;;
67930;SDS011;63902;52.000;5.954;2024-01-10T05:48:54;5.95;;;3.95;;
67930;SDS011;63902;52.000;5.954;2024-01-10T05:49:55;6.60;;;3.15;;
67930;SDS011;63902;52.000;5.954;2024-01-10T05:50:57;5.85;;;2.95;;
67930;SDS011;63902;52.000;5.954;2024-01-10T05:51:57;5.70;;;3.05;;
67930;SDS011;63902;52.000;5.954;2024-01-10T05:52:58;6.25;;;2.50;;
67930;SDS011;63902;52.000;5.954;2024-01-10T05:53:58;5.35;;;3.25;;
67930;SDS011;63902;52.000;5.954;2024-01-10T05:54:59;5.57;;;3.22;;
67930;SDS011;63902;52.000;5.954;2024-01-10T05:56:00;6.13;;;3.08;;
67930;SDS011;63902;52.000;5.954;2024-01-10T05:57:00;5.22;;;2.83;;
67930;SDS011;63902;52.000;5.954;2024-01-10T05:58:01;4.97;;;3.28;;
67930;SDS011;63902;52.000;5.954;2024-01-10T05:59:01;7.75;;;3.65;;
67930;SDS011;63902;52.000;5.954;2024-01-10T06:00:02;5.00;;;3.15;;
67930;SDS011;63902;52.000;5.954;2024-01-10T06:01:03;5.80;;;2.42;;
67930;SDS011;63902;52.000;5.954;2024-01-10T06:02:03;4.72;;;3.55;;
67930;SDS011;63902;52.000;5.954;2024-01-10T06:03:04;5.20;;;3.45;;
67930;SDS011;63902;52.000;5.954;2024-01-10T06:04:05;4.10;;;2.83;;
67930;SDS011;63902;52.000;5.954;2024-01-10T06:05:05;6.72;;;2.78;;
67930;SDS011;63902;52.000;5.954;2024-01-10T06:06:09;4.45;;;2.70;;
67930;SDS011;63902;52.000;5.954;2024-01-10T06:07:09;12.55;;;2.83;;
67930;SDS011;63902;52.000;5.954;2024-01-10T06:08:10;4.93;;;3.50;;
67930;SDS011;63902;52.000;5.954;2024-01-10T06:09:10;8.60;;;3.80;;
67930;SDS011;63902;52.000;5.954;2024-01-10T06:10:11;5.05;;;2.28;;
67930;SDS011;63902;52.000;5.954;2024-01-10T06:11:11;5.60;;;3.05;;
67930;SDS011;63902;52.000;5.954;2024-01-10T06:12:12;7.38;;;3.38;;
67930;SDS011;63902;52.000;5.954;2024-01-10T06:13:12;5.32;;;2.75;;
67930;SDS011;63902;52.000;5.954;2024-01-10T06:14:13;5.53;;;3.22;;
67930;SDS011;63902;52.000;5.954;2024-01-10T06:15:13;5.95;;;2.92;;
67930;SDS011;63902;52.000;5.954;2024-01-10T06:16:14;6.63;;;3.53;;
67930;SDS011;63902;52.000;5.954;2024-01-10T06:17:14;7.40;;;2.83;;
67930;SDS011;63902;52.000;5.954;2024-01-10T06:18:15;5.72;;;3.58;;
67930;SDS011;63902;52.000;5.954;2024-01-10T06:19:15;7.57;;;3.95;;
67930;SDS011;63902;52.000;5.954;2024-01-10T06:20:16;9.55;;;3.00;;
67930;SDS011;63902;52.000;5.954;2024-01-10T06:21:18;7.45;;;4.13;;
67930;SDS011;63902;52.000;5.954;2024-01-10T06:22:19;4.40;;;2.90;;
67930;SDS011;63902;52.000;5.954;2024-01-10T06:23:19;6.25;;;3.10;;
67930;SDS011;63902;52.000;5.954;2024-01-10T06:24:19;5.15;;;3.08;;
67930;SDS011;63902;52.000;5.954;2024-01-10T06:25:20;7.20;;;3.15;;
67930;SDS011;63902;52.000;5.954;2024-01-10T06:26:20;6.55;;;3.97;;
67930;SDS011;63902;52.000;5.954;2024-01-10T06:27:21;4.72;;;3.20;;
67930;SDS011;63902;52.000;5.954;2024-01-10T06:28:21;8.93;;;3.78;;
67930;SDS011;63902;52.000;5.954;2024-01-10T06:29:22;5.97;;;3.78;;
67930;SDS011;63902;52.000;5.954;2024-01-10T06:30:23;6.22;;;3.80;;
67930;SDS011;63902;52.000;5.954;2024-01-10T06:31:23;6.20;;;3.63;;
67930;SDS011;63902;52.000;5.954;2024-01-10T06:32:24;6.25;;;3.60;;
67930;SDS011;63902;52.000;5.954;2024-01-10T06:33:24;6.00;;;3.50;;
67930;SDS011;63902;52.000;5.954;2024-01-10T06:34:25;6.95;;;3.63;;
67930;SDS011;63902;52.000;5.954;2024-01-10T06:35:25;5.70;;;3.10;;
67930;SDS011;63902;52.000;5.954;2024-01-10T06:36:27;5.85;;;3.53;;
67930;SDS011;63902;52.000;5.954;2024-01-10T06:37:27;10.70;;;4.30;;
67930;SDS011;63902;52.000;5.954;2024-01-10T06:38:28;6.57;;;3.58;;
67930;SDS011;63902;52.000;5.954;2024-01-10T06:39:29;5.88;;;3.53;;
67930;SDS011;63902;52.000;5.954;2024-01-10T06:40:29;6.25;;;3.78;;
67930;SDS011;63902;52.000;5.954;2024-01-10T06:41:30;6.07;;;3.63;;
67930;SDS011;63902;52.000;5.954;2024-01-10T06:42:30;11.70;;;3.45;;
67930;SDS011;63902;52.000;5.954;2024-01-10T06:43:31;5.00;;;3.25;;
67930;SDS011;63902;52.000;5.954;2024-01-10T06:44:31;4.97;;;3.13;;
67930;SDS011;63902;52.000;5.954;2024-01-10T06:45:32;6.68;;;4.03;;
67930;SDS011;63902;52.000;5.954;2024-01-10T06:46:32;5.85;;;3.42;;
67930;SDS011;63902;52.000;5.954;2024-01-10T06:47:33;6.13;;;4.47;;
67930;SDS011;63902;52.000;5.954;2024-01-10T06:48:33;9.27;;;4.60;;
67930;SDS011;63902;52.000;5.954;2024-01-10T06:49:34;7.32;;;3.17;;
67930;SDS011;63902;52.000;5.954;2024-01-10T06:50:35;7.60;;;4.00;;
67930;SDS011;63902;52.000;5.954;2024-01-10T06:51:37;4.88;;;3.45;;
67930;SDS011;63902;52.000;5.954;2024-01-10T06:52:38;6.60;;;3.90;;
67930;SDS011;63902;52.000;5.954;2024-01-10T06:53:38;6.20;;;3.45;;
67930;SDS011;63902;52.000;5.954;2024-01-10T06:54:39;7.68;;;4.00;;
67930;SDS011;63902;52.000;5.954;2024-01-10T06:55:39;8.27;;;3.97;;
67930;SDS011;63902;52.000;5.954;2024-01-10T06:56:40;9.88;;;4.45;;
67930;SDS011;63902;52.000;5.954;2024-01-10T06:57:41;10.32;;;4.45;;
67930;SDS011;63902;52.000;5.954;2024-01-10T06:58:41;5.88;;;3.65;;
67930;SDS011;63902;52.000;5.954;2024-01-10T06:59:42;7.18;;;3.97;;
67930;SDS011;63902;52.000;5.954;2024-01-10T07:00:42;6.40;;;4.00;;
67930;SDS011;63902;52.000;5.954;2024-01-10T07:01:43;8.18;;;3.83;;
67930;SDS011;63902;52.000;5.954;2024-01-10T07:02:43;11.07;;;4.05;;
67930;SDS011;63902;52.000;5.954;2024-01-10T07:03:44;8.07;;;4.38;;
67930;SDS011;63902;52.000;5.954;2024-01-10T07:04:44;5.80;;;4.32;;
67930;SDS011;63902;52.000;5.954;2024-01-10T07:05:45;8.00;;;4.30;;
67930;SDS011;63902;52.000;5.954;2024-01-10T07:06:47;6.75;;;4.10;;
67930;SDS011;63902;52.000;5.954;2024-01-10T07:07:48;7.72;;;3.70;;
67930;SDS011;63902;52.000;5.954;2024-01-10T07:08:48;9.63;;;4.63;;
67930;SDS011;63902;52.000;5.954;2024-01-10T07:09:50;7.63;;;4.00;;
67930;SDS011;63902;52.000;5.954;2024-01-10T07:10:50;8.32;;;4.20;;
67930;SDS011;63902;52.000;5.954;2024-01-10T07:11:51;6.28;;;4.10;;
67930;SDS011;63902;52.000;5.954;2024-01-10T07:12:51;7.85;;;4.30;;
67930;SDS011;63902;52.000;5.954;2024-01-10T07:13:52;13.88;;;4.80;;
67930;SDS011;63902;52.000;5.954;2024-01-10T07:14:52;8.90;;;2.97;;
67930;SDS011;63902;52.000;5.954;2024-01-10T07:15:53;6.10;;;4.00;;
67930;SDS011;63902;52.000;5.954;2024-01-10T07:16:53;7.40;;;4.40;;
67930;SDS011;63902;52.000;5.954;2024-01-10T07:17:54;10.15;;;4.15;;
67930;SDS011;63902;52.000;5.954;2024-01-10T07:18:54;5.50;;;3.55;;
67930;SDS011;63902;52.000;5.954;2024-01-10T07:19:55;5.70;;;3.72;;
67930;SDS011;63902;52.000;5.954;2024-01-10T07:20:55;8.15;;;3.97;;
67930;SDS011;63902;52.000;5.954;2024-01-10T07:21:57;5.18;;;3.85;;
67930;SDS011;63902;52.000;5.954;2024-01-10T07:22:58;6.28;;;4.20;;
67930;SDS011;63902;52.000;5.954;2024-01-10T07:23:58;5.15;;;3.67;;
67930;SDS011;63902;52.000;5.954;2024-01-10T07:24:59;7.40;;;4.07;;
67930;SDS011;63902;52.000;5.954;2024-01-10T07:25:59;6.07;;;3.58;;
67930;SDS011;63902;52.000;5.954;2024-01-10T07:27:00;7.35;;;4.32;;
67930;SDS011;63902;52.000;5.954;2024-01-10T07:28:00;6.72;;;3.53;;
67930;SDS011;63902;52.000;5.954;2024-01-10T07:29:01;6.60;;;3.90;;
67930;SDS011;63902;52.000;5.954;2024-01-10T13:57:51;9.20;;;4.60;;
67930;SDS011;63902;52.000;5.954;2024-01-10T14:01:11;12.15;;;5.50;;
67930;SDS011;63902;52.000;5.954;2024-01-10T14:02:12;8.18;;;5.00;;
67930;SDS011;63902;52.000;5.954;2024-01-10T14:05:33;9.68;;;5.22;;
67930;SDS011;63902;52.000;5.954;2024-01-10T14:06:33;11.80;;;6.32;;
67930;SDS011;63902;52.000;5.954;2024-01-10T14:08:38;11.52;;;5.72;;
67930;SDS011;63902;52.000;5.954;2024-01-10T14:10:50;11.40;;;5.75;;
67930;SDS011;63902;52.000;5.954;2024-01-10T14:11:50;8.38;;;4.70;;
67930;SDS011;63902;52.000;5.954;2024-01-10T14:12:52;10.27;;;5.95;;
67930;SDS011;63902;52.000;5.954;2024-01-10T14:13:53;11.10;;;5.75;;
67930;SDS011;63902;52.000;5.954;2024-01-10T14:14:53;12.98;;;6.20;;
67930;SDS011;63902;52.000;5.954;2024-01-10T14:15:54;8.40;;;5.43;;
67930;SDS011;63902;52.000;5.954;2024-01-10T14:16:54;12.95;;;6.47;;
67930;SDS011;63902;52.000;5.954;2024-01-10T14:17:55;7.68;;;4.97;;
67930;SDS011;63902;52.000;5.954;2024-01-10T14:18:55;13.35;;;6.40;;
67930;SDS011;63902;52.000;5.954;2024-01-10T14:19:56;11.38;;;6.20;;
67930;SDS011;63902;52.000;5.954;2024-01-10T14:20:56;11.27;;;5.95;;
67930;SDS011;63902;52.000;5.954;2024-01-10T14:21:57;14.57;;;6.28;;
67930;SDS011;63902;52.000;5.954;2024-01-10T14:22:58;11.38;;;6.32;;
67930;SDS011;63902;52.000;5.954;2024-01-10T14:23:59;15.90;;;6.13;;
67930;SDS011;63902;52.000;5.954;2024-01-10T14:24:59;8.18;;;5.28;;
67930;SDS011;63902;52.000;5.954;2024-01-10T14:26:00;14.32;;;6.72;;
67930;SDS011;63902;52.000;5.954;2024-01-10T14:27:00;11.05;;;6.82;;
67930;SDS011;63902;52.000;5.954;2024-01-10T14:28:02;17.40;;;7.18;;
67930;SDS011;63902;52.000;5.954;2024-01-10T14:29:03;12.32;;;6.50;;
67930;SDS011;63902;52.000;5.954;2024-01-10T14:30:04;10.48;;;6.45;;
67930;SDS011;63902;52.000;5.954;2024-01-10T14:31:06;10.80;;;5.97;;
67930;SDS011;63902;52.000;5.954;2024-01-10T14:32:06;14.73;;;6.90;;
67930;SDS011;63902;52.000;5.954;2024-01-10T14:33:07;11.57;;;6.22;;
67930;SDS011;63902;52.000;5.954;2024-01-10T14:34:07;12.93;;;5.97;;
67930;SDS011;63902;52.000;5.954;2024-01-10T14:35:08;10.25;;;5.75;;
67930;SDS011;63902;52.000;5.954;2024-01-10T14:36:08;9.52;;;4.50;;
67930;SDS011;63902;52.000;5.954;2024-01-10T14:37:09;9.25;;;5.00;;
67930;SDS011;63902;52.000;5.954;2024-01-10T14:38:09;10.95;;;5.82;;
67930;SDS011;63902;52.000;5.954;2024-01-10T14:39:10;9.82;;;5.50;;
67930;SDS011;63902;52.000;5.954;2024-01-10T14:40:10;9.02;;;5.30;;
67930;SDS011;63902;52.000;5.954;2024-01-10T14:41:11;13.88;;;6.97;;
67930;SDS011;63902;52.000;5.954;2024-01-10T14:42:11;11.55;;;5.63;;
67930;SDS011;63902;52.000;5.954;2024-01-10T14:43:13;14.45;;;6.07;;
67930;SDS011;63902;52.000;5.954;2024-01-10T14:44:14;12.90;;;6.75;;
67930;SDS011;63902;52.000;5.954;2024-01-10T14:45:14;11.20;;;5.50;;
67930;SDS011;63902;52.000;5.954;2024-01-10T14:46:15;12.07;;;5.50;;
67930;SDS011;63902;52.000;5.954;2024-01-10T14:47:16;8.35;;;5.55;;
67930;SDS011;63902;52.000;5.954;2024-01-10T14:48:16;10.82;;;5.55;;
67930;SDS011;63902;52.000;5.954;2024-01-10T14:49:17;11.13;;;6.30;;
67930;SDS011;63902;52.000;5.954;2024-01-10T14:50:17;11.10;;;5.30;;
67930;SDS011;63902;52.000;5.954;2024-01-10T14:51:17;8.90;;;5.22;;
67930;SDS011;63902;52.000;5.954;2024-01-10T14:52:18;11.43;;;5.57;;
67930;SDS011;63902;52.000;5.954;2024-01-10T14:53:18;8.80;;;5.13;;
67930;SDS011;63902;52.000;5.954;2024-01-10T14:54:19;12.73;;;6.10;;
67930;SDS011;63902;52.000;5.954;2024-01-10T14:55:19;9.20;;;5.65;;
67930;SDS011;63902;52.000;5.954;2024-01-10T14:56:20;10.27;;;5.38;;
67930;SDS011;63902;52.000;5.954;2024-01-10T14:57:20;10.23;;;5.38;;
67930;SDS011;63902;52.000;5.954;2024-01-10T14:58:22;9.45;;;5.22;;
67930;SDS011;63902;52.000;5.954;2024-01-10T14:59:23;11.98;;;5.72;;
67930;SDS011;63902;52.000;5.954;2024-01-10T15:00:23;13.10;;;6.72;;
67930;SDS011;63902;52.000;5.954;2024-01-10T15:01:24;11.45;;;6.20;;
67930;SDS011;63902;52.000;5.954;2024-01-10T15:02:25;10.90;;;5.95;;
67930;SDS011;63902;52.000;5.954;2024-01-10T15:03:25;12.55;;;5.53;;
67930;SDS011;63902;52.000;5.954;2024-01-10T15:04:25;8.45;;;4.95;;
67930;SDS011;63902;52.000;5.954;2024-01-10T15:05:26;8.85;;;5.25;;
67930;SDS011;63902;52.000;5.954;2024-01-10T15:06:26;12.52;;;5.85;;
67930;SDS011;63902;52.000;5.954;2024-01-10T15:07:27;13.75;;;5.65;;
67930;SDS011;63902;52.000;5.954;2024-01-10T15:08:27;12.93;;;6.03;;
67930;SDS011;63902;52.000;5.954;2024-01-10T15:09:28;10.02;;;4.90;;
67930;SDS011;63902;52.000;5.954;2024-01-10T15:10:28;12.20;;;5.50;;
67930;SDS011;63902;52.000;5.954;2024-01-10T15:11:29;12.80;;;5.90;;
67930;SDS011;63902;52.000;5.954;2024-01-10T15:12:29;14.93;;;6.32;;
67930;SDS011;63902;52.000;5.954;2024-01-10T15:13:31;10.93;;;5.75;;
67930;SDS011;63902;52.000;5.954;2024-01-10T15:14:32;19.92;;;9.23;;
67930;SDS011;63902;52.000;5.954;2024-01-10T15:15:32;27.98;;;11.75;;
67930;SDS011;63902;52.000;5.954;2024-01-10T15:16:33;28.75;;;11.50;;
67930;SDS011;63902;52.000;5.954;2024-01-10T15:17:33;20.27;;;9.50;;
67930;SDS011;63902;52.000;5.954;2024-01-10T15:18:34;17.60;;;8.45;;
67930;SDS011;63902;52.000;5.954;2024-01-10T15:19:34;9.45;;;5.70;;
67930;SDS011;63902;52.000;5.954;2024-01-10T15:20:35;13.68;;;6.90;;
67930;SDS011;63902;52.000;5.954;2024-01-10T15:21:35;12.75;;;6.45;;
67930;SDS011;63902;52.000;5.954;2024-01-10T15:22:36;10.38;;;5.47;;
67930;SDS011;63902;52.000;5.954;2024-01-10T15:23:36;12.85;;;5.82;;
67930;SDS011;63902;52.000;5.954;2024-01-10T15:24:37;9.57;;;5.35;;
67930;SDS011;63902;52.000;5.954;2024-01-10T15:25:37;10.65;;;5.78;;
67930;SDS011;63902;52.000;5.954;2024-01-10T15:26:38;7.90;;;4.95;;
67930;SDS011;63902;52.000;5.954;2024-01-10T15:27:38;9.43;;;5.20;;
67930;SDS011;63902;52.000;5.954;2024-01-10T15:28:40;11.75;;;5.90;;
67930;SDS011;63902;52.000;5.954;2024-01-10T15:29:41;14.32;;;5.95;;
67930;SDS011;63902;52.000;5.954;2024-01-10T15:30:41;10.40;;;5.82;;
67930;SDS011;63902;52.000;5.954;2024-01-10T15:31:42;9.55;;;5.22;;
67930;SDS011;63902;52.000;5.954;2024-01-10T15:32:42;11.38;;;5.72;;
67930;SDS011;63902;52.000;5.954;2024-01-10T15:33:43;10.63;;;5.63;;
67930;SDS011;63902;52.000;5.954;2024-01-10T15:34:44;17.40;;;5.38;;
67930;SDS011;63902;52.000;5.954;2024-01-10T15:35:44;9.95;;;5.68;;
67930;SDS011;63902;52.000;5.954;2024-01-10T15:36:45;11.15;;;5.32;;
67930;SDS011;63902;52.000;5.954;2024-01-10T15:38:55;12.07;;;5.57;;
67930;SDS011;63902;52.000;5.954;2024-01-10T15:39:56;11.57;;;6.00;;
67930;SDS011;63902;52.000;5.954;2024-01-10T15:40:56;11.45;;;5.78;;
67930;SDS011;63902;52.000;5.954;2024-01-10T15:43:07;7.05;;;4.80;;
67930;SDS011;63902;52.000;5.954;2024-01-10T15:44:09;9.35;;;5.65;;
67930;SDS011;63902;52.000;5.954;2024-01-10T15:46:20;14.48;;;5.57;;
67930;SDS011;63902;52.000;5.954;2024-01-10T15:47:20;8.52;;;4.72;;
67930;SDS011;63902;52.000;5.954;2024-01-10T15:49:31;10.40;;;4.45;;
67930;SDS011;63902;52.000;5.954;2024-01-10T15:50:31;12.65;;;5.72;;
67930;SDS011;63902;52.000;5.954;2024-01-10T15:53:52;12.40;;;5.82;;
67930;SDS011;63902;52.000;5.954;2024-01-10T15:54:52;13.10;;;7.15;;
67930;SDS011;63902;52.000;5.954;2024-01-10T15:55:53;18.08;;;10.52;;
67930;SDS011;63902;52.000;5.954;2024-01-10T15:56:53;21.52;;;12.05;;
67930;SDS011;63902;52.000;5.954;2024-01-10T15:57:54;15.93;;;8.55;;
67930;SDS011;63902;52.000;5.954;2024-01-10T15:58:54;13.63;;;7.47;;
67930;SDS011;63902;52.000;5.954;2024-01-10T15:59:56;16.38;;;8.23;;
67930;SDS011;63902;52.000;5.954;2024-01-10T16:00:57;12.98;;;7.95;;
67930;SDS011;63902;52.000;5.954;2024-01-10T16:01:58;10.00;;;6.63;;
67930;SDS011;63902;52.000;5.954;2024-01-10T16:02:59;11.43;;;7.65;;
67930;SDS011;63902;52.000;5.954;2024-01-10T16:03:59;13.60;;;7.78;;
67930;SDS011;63902;52.000;5.954;2024-01-10T16:05:00;21.73;;;12.38;;
67930;SDS011;63902;52.000;5.954;2024-01-10T16:06:01;23.35;;;10.25;;
67930;SDS011;63902;52.000;5.954;2024-01-10T16:07:01;16.50;;;9.90;;
67930;SDS011;63902;52.000;5.954;2024-01-10T16:08:02;20.23;;;9.43;;
67930;SDS011;63902;52.000;5.954;2024-01-10T16:09:03;13.40;;;7.47;;
67930;SDS011;63902;52.000;5.954;2024-01-10T16:10:04;13.27;;;7.50;;
67930;SDS011;63902;52.000;5.954;2024-01-10T16:11:05;12.65;;;8.15;;
67930;SDS011;63902;52.000;5.954;2024-01-10T16:12:06;13.15;;;7.18;;
67930;SDS011;63902;52.000;5.954;2024-01-10T16:13:07;14.73;;;8.52;;
67930;SDS011;63902;52.000;5.954;2024-01-10T16:14:07;13.10;;;9.00;;
67930;SDS011;63902;52.000;5.954;2024-01-10T16:15:10;22.70;;;13.65;;
67930;SDS011;63902;52.000;5.954;2024-01-10T16:16:10;20.63;;;13.48;;
67930;SDS011;63902;52.000;5.954;2024-01-10T16:17:11;14.50;;;9.65;;
67930;SDS011;63902;52.000;5.954;2024-01-10T16:18:11;21.52;;;8.57;;
67930;SDS011;63902;52.000;5.954;2024-01-10T16:19:12;14.15;;;7.68;;
67930;SDS011;63902;52.000;5.954;2024-01-10T16:20:12;13.25;;;6.43;;